createdAt,value
2019-05-19T00:01:16.112Z,14.60
2019-05-19T00:03:45.365Z,14.60
2019-05-19T00:06:14.563Z,14.60
2019-05-19T00:08:43.781Z,14.60
2019-05-19T00:11:12.910Z,14.70
2019-05-19T00:13:42.430Z,14.70
2019-05-19T00:16:12.312Z,14.60
2019-05-19T00:18:41.808Z,14.70
2019-05-19T00:21:11.046Z,14.70
2019-05-19T00:23:40.429Z,14.70
2019-05-19T00:26:09.864Z,14.70
2019-05-19T00:28:39.151Z,14.80
2019-05-19T00:31:08.363Z,14.80
2019-05-19T00:33:37.871Z,14.90
2019-05-19T00:36:07.049Z,14.70
2019-05-19T00:38:36.293Z,14.60
2019-05-19T00:41:05.546Z,14.60
2019-05-19T00:43:34.813Z,14.60
2019-05-19T00:46:04.036Z,14.70
2019-05-19T00:48:33.216Z,14.70
2019-05-19T00:51:02.490Z,14.70
2019-05-19T00:53:31.798Z,14.70
2019-05-19T00:56:01.797Z,14.60
2019-05-19T00:58:33.383Z,14.60
2019-05-19T01:01:02.550Z,14.60
2019-05-19T01:03:31.716Z,14.50
2019-05-19T01:06:00.936Z,14.60
2019-05-19T01:08:30.082Z,14.50
2019-05-19T01:10:59.319Z,14.40
2019-05-19T01:13:28.492Z,14.40
2019-05-19T01:15:57.663Z,14.50
2019-05-19T01:18:26.929Z,14.30
2019-05-19T01:20:56.146Z,14.50
2019-05-19T01:23:25.666Z,14.40
2019-05-19T01:25:54.785Z,14.50
2019-05-19T01:28:24.069Z,14.50
2019-05-19T01:30:53.587Z,14.50
2019-05-19T01:33:22.788Z,14.50
2019-05-19T01:35:52.297Z,14.50
2019-05-19T01:38:21.661Z,14.50
2019-05-19T01:40:50.805Z,14.60
2019-05-19T01:43:20.034Z,14.60
2019-05-19T01:45:49.569Z,14.70
2019-05-19T01:48:18.787Z,14.80
2019-05-19T01:50:48.338Z,14.70
2019-05-19T01:53:17.766Z,14.60
2019-05-19T01:55:46.961Z,14.30
2019-05-19T01:58:16.133Z,14.20
2019-05-19T02:00:45.297Z,14.10
2019-05-19T02:03:14.618Z,14.10
2019-05-19T02:05:44.123Z,14.20
2019-05-19T02:08:13.406Z,14.40
2019-05-19T02:10:42.561Z,14.60
2019-05-19T02:13:11.913Z,14.50
2019-05-19T02:15:41.208Z,14.60
2019-05-19T02:18:10.481Z,14.60
2019-05-19T02:20:39.938Z,14.60
2019-05-19T02:23:09.274Z,14.30
2019-05-19T02:25:38.458Z,14.20
2019-05-19T02:28:07.926Z,14.10
2019-05-19T02:30:37.900Z,14.10
2019-05-19T02:33:07.543Z,14.10
2019-05-19T02:35:36.766Z,14.20
2019-05-19T02:38:06.171Z,14.20
2019-05-19T02:40:38.602Z,14.10
2019-05-19T02:43:08.893Z,14.10
2019-05-19T02:45:40.433Z,14.00
2019-05-19T02:48:11.127Z,14.00
2019-05-19T02:50:51.792Z,14.00
2019-05-19T02:53:12.832Z,14.00
2019-05-19T02:55:42.259Z,14.00
2019-05-19T02:58:13.242Z,13.90
2019-05-19T03:00:43.557Z,13.90
2019-05-19T03:03:12.827Z,13.90
2019-05-19T03:05:42.029Z,13.90
2019-05-19T03:08:11.287Z,13.90
2019-05-19T03:10:40.590Z,14.00
2019-05-19T03:13:09.788Z,14.00
2019-05-19T03:15:39.097Z,14.00
2019-05-19T03:18:08.899Z,14.00
2019-05-19T03:20:38.396Z,14.00
2019-05-19T03:23:07.593Z,13.90
2019-05-19T03:25:36.823Z,14.10
2019-05-19T03:28:06.026Z,14.00
2019-05-19T03:30:57.241Z,14.10
2019-05-19T03:33:28.863Z,14.10
2019-05-19T03:35:58.791Z,14.20
2019-05-19T03:38:28.008Z,14.30
2019-05-19T03:40:57.195Z,14.30
2019-05-19T03:43:26.646Z,14.30
2019-05-19T03:45:56.271Z,14.30
2019-05-19T03:48:25.593Z,14.30
2019-05-19T03:50:54.807Z,14.30
2019-05-19T03:53:24.494Z,14.30
2019-05-19T03:55:54.112Z,14.30
2019-05-19T03:58:23.820Z,14.30
2019-05-19T04:00:53.475Z,14.40
2019-05-19T04:03:23.467Z,14.40
2019-05-19T04:05:53.315Z,14.30
2019-05-19T04:08:23.698Z,14.40
2019-05-19T04:10:53.585Z,14.30
2019-05-19T04:13:23.609Z,14.30
2019-05-19T04:15:53.315Z,14.40
2019-05-19T04:18:23.029Z,14.40
2019-05-19T04:20:52.649Z,14.40
2019-05-19T04:23:22.576Z,14.50
2019-05-19T04:25:53.135Z,14.40
2019-05-19T04:28:22.852Z,14.40
2019-05-19T04:30:52.455Z,14.40
2019-05-19T04:33:22.546Z,14.40
2019-05-19T04:35:52.256Z,14.50
2019-05-19T04:38:22.534Z,14.40
2019-05-19T04:40:52.149Z,14.40
2019-05-19T04:43:21.993Z,14.50
2019-05-19T04:45:51.639Z,14.60
2019-05-19T04:48:21.656Z,14.70
2019-05-19T04:50:51.525Z,14.70
2019-05-19T04:53:21.025Z,14.80
2019-05-19T04:55:50.886Z,14.80
2019-05-19T04:58:20.944Z,14.90
2019-05-19T05:00:50.717Z,14.90
2019-05-19T05:03:20.324Z,14.60
2019-05-19T05:05:50.290Z,14.60
2019-05-19T05:08:29.954Z,14.60
2019-05-19T05:10:51.434Z,14.60
2019-05-19T05:13:21.060Z,14.60
2019-05-19T05:15:51.078Z,14.70
2019-05-19T05:18:21.291Z,14.80
2019-05-19T05:20:50.932Z,15.20
2019-05-19T05:23:20.938Z,15.70
2019-05-19T05:25:50.575Z,15.60
2019-05-19T05:28:20.437Z,15.70
2019-05-19T05:30:49.850Z,15.70
2019-05-19T05:33:19.276Z,15.50
2019-05-19T05:35:49.022Z,15.30
2019-05-19T05:38:18.876Z,15.10
2019-05-19T05:40:48.376Z,15.10
2019-05-19T05:43:17.818Z,15.10
2019-05-19T05:45:47.813Z,15.20
2019-05-19T05:48:17.156Z,15.20
2019-05-19T05:50:46.677Z,15.40
2019-05-19T05:53:16.577Z,15.30
2019-05-19T05:55:46.695Z,15.50
2019-05-19T05:58:16.297Z,15.50
2019-05-19T06:00:45.794Z,15.10
2019-05-19T06:03:15.578Z,14.90
2019-05-19T06:05:45.047Z,14.90
2019-05-19T06:08:15.078Z,14.80
2019-05-19T06:10:44.803Z,14.70
2019-05-19T06:13:14.770Z,14.90
2019-05-19T06:15:44.579Z,14.90
2019-05-19T06:18:14.538Z,15.10
2019-05-19T06:20:43.839Z,15.10
2019-05-19T06:23:13.563Z,15.30
2019-05-19T06:25:43.053Z,15.70
2019-05-19T06:28:12.690Z,15.80
2019-05-19T06:30:42.682Z,16.00
2019-05-19T06:33:12.252Z,15.90
2019-05-19T06:35:41.759Z,15.80
2019-05-19T06:38:11.526Z,15.70
2019-05-19T06:40:41.179Z,15.90
2019-05-19T06:43:10.699Z,16.00
2019-05-19T06:45:40.197Z,16.10
2019-05-19T06:48:09.971Z,16.00
2019-05-19T06:50:40.735Z,16.20
2019-05-19T06:53:14.236Z,16.40
2019-05-19T06:55:42.218Z,16.50
2019-05-19T06:58:12.318Z,16.50
2019-05-19T07:00:42.020Z,16.70
2019-05-19T07:03:11.653Z,17.00
2019-05-19T07:05:41.345Z,16.90
2019-05-19T07:08:10.761Z,16.70
2019-05-19T07:10:40.186Z,17.00
2019-05-19T07:13:09.742Z,17.50
2019-05-19T07:15:39.262Z,17.60
2019-05-19T07:18:08.882Z,17.70
2019-05-19T07:20:38.582Z,17.80
2019-05-19T07:23:08.219Z,17.70
2019-05-19T07:25:40.462Z,17.80
2019-05-19T07:28:09.942Z,17.60
2019-05-19T07:30:39.705Z,17.50
2019-05-19T07:33:09.663Z,17.60
2019-05-19T07:35:39.716Z,17.50
2019-05-19T07:38:09.524Z,17.30
2019-05-19T07:40:38.914Z,17.50
2019-05-19T07:43:08.521Z,17.80
2019-05-19T07:45:38.083Z,18.00
2019-05-19T07:48:07.887Z,18.00
2019-05-19T07:50:38.255Z,18.20
2019-05-19T07:53:07.764Z,18.80
2019-05-19T07:55:37.291Z,18.50
2019-05-19T07:58:06.801Z,19.10
2019-05-19T08:00:36.443Z,19.20
2019-05-19T08:03:05.861Z,18.90
2019-05-19T08:05:35.545Z,18.90
2019-05-19T08:08:05.184Z,19.30
2019-05-19T08:10:34.946Z,19.30
2019-05-19T08:13:04.518Z,19.10
2019-05-19T08:15:34.109Z,18.40
2019-05-19T08:18:11.156Z,18.40
2019-05-19T08:20:41.259Z,18.50
2019-05-19T08:23:13.584Z,18.40
2019-05-19T08:25:44.243Z,18.30
2019-05-19T08:28:13.458Z,18.50
2019-05-19T08:30:42.650Z,18.70
2019-05-19T08:33:11.937Z,19.00
2019-05-19T08:35:41.543Z,19.10
2019-05-19T08:38:10.806Z,19.40
2019-05-19T08:40:40.423Z,19.70
2019-05-19T08:43:09.671Z,19.90
2019-05-19T08:45:38.935Z,20.20
2019-05-19T08:48:08.154Z,20.50
2019-05-19T08:50:37.432Z,20.70
2019-05-19T08:53:06.693Z,20.80
2019-05-19T08:55:35.899Z,20.60
2019-05-19T08:58:05.183Z,21.20
2019-05-19T09:00:38.397Z,21.50
2019-05-19T09:03:06.318Z,21.50
2019-05-19T09:05:35.859Z,21.40
2019-05-19T09:08:05.069Z,21.30
2019-05-19T09:10:34.552Z,21.30
2019-05-19T09:13:04.293Z,21.10
2019-05-19T09:15:33.789Z,20.80
2019-05-19T09:18:03.086Z,20.90
2019-05-19T09:20:32.521Z,21.10
2019-05-19T09:23:01.750Z,21.40
2019-05-19T09:25:30.913Z,21.80
2019-05-19T09:28:00.161Z,22.20
2019-05-19T09:30:29.323Z,21.90
2019-05-19T09:32:58.622Z,21.70
2019-05-19T09:35:28.088Z,21.10
2019-05-19T09:37:57.593Z,21.80
2019-05-19T09:40:26.903Z,21.80
2019-05-19T09:42:56.332Z,21.80
2019-05-19T09:45:25.533Z,22.40
2019-05-19T09:47:55.126Z,22.80
2019-05-19T09:50:24.649Z,22.80
2019-05-19T09:52:53.814Z,23.10
2019-05-19T09:55:23.022Z,23.20
2019-05-19T09:57:52.283Z,23.30
2019-05-19T10:00:23.076Z,23.30
2019-05-19T10:02:52.281Z,23.20
2019-05-19T10:05:21.459Z,23.50
2019-05-19T10:07:50.693Z,23.40
2019-05-19T10:10:20.747Z,22.50
2019-05-19T10:12:50.247Z,22.50
2019-05-19T10:15:19.575Z,22.60
2019-05-19T10:17:49.137Z,22.60
2019-05-19T10:20:18.865Z,21.90
2019-05-19T10:22:48.037Z,22.80
2019-05-19T10:25:22.067Z,22.50
2019-05-19T10:27:49.250Z,22.40
2019-05-19T10:30:18.482Z,22.30
2019-05-19T10:32:47.882Z,22.40
2019-05-19T10:35:17.169Z,22.40
2019-05-19T10:37:46.416Z,21.80
2019-05-19T10:40:15.925Z,22.20
2019-05-19T10:42:45.682Z,22.50
2019-05-19T10:45:15.079Z,23.00
2019-05-19T10:47:44.501Z,23.30
2019-05-19T10:50:13.693Z,24.00
2019-05-19T10:52:42.837Z,23.30
2019-05-19T10:55:12.142Z,23.80
2019-05-19T10:57:41.958Z,23.60
2019-05-19T11:00:12.065Z,23.10
2019-05-19T11:02:41.313Z,23.60
2019-05-19T11:05:11.475Z,24.00
2019-05-19T11:07:40.834Z,23.50
2019-05-19T11:10:10.385Z,23.00
2019-05-19T11:12:39.639Z,22.70
2019-05-19T11:15:10.833Z,23.00
2019-05-19T11:17:40.051Z,23.40
2019-05-19T11:20:09.583Z,23.40
2019-05-19T11:22:39.024Z,23.60
2019-05-19T11:25:08.351Z,22.90
2019-05-19T11:27:37.781Z,23.30
2019-05-19T11:30:07.021Z,23.60
2019-05-19T11:32:36.174Z,24.00
2019-05-19T11:35:05.644Z,24.20
2019-05-19T11:37:35.081Z,24.80
2019-05-19T11:40:04.336Z,25.30
2019-05-19T11:42:33.906Z,25.00
2019-05-19T11:45:03.194Z,25.40
2019-05-19T11:47:32.507Z,25.60
2019-05-19T11:50:01.734Z,25.50
2019-05-19T11:52:31.025Z,25.80
2019-05-19T11:55:00.213Z,25.90
2019-05-19T11:57:29.520Z,26.00
2019-05-19T11:59:58.734Z,26.10
2019-05-19T12:02:28.287Z,25.20
2019-05-19T12:04:57.450Z,25.10
2019-05-19T12:07:26.953Z,25.10
2019-05-19T12:09:56.546Z,25.60
2019-05-19T12:12:25.723Z,25.70
2019-05-19T12:14:54.987Z,25.70
2019-05-19T12:17:24.485Z,25.50
2019-05-19T12:19:54.319Z,25.30
2019-05-19T12:22:23.465Z,26.20
2019-05-19T12:24:53.010Z,25.70
2019-05-19T12:27:22.211Z,26.50
2019-05-19T12:29:51.469Z,26.10
2019-05-19T12:32:20.689Z,25.20
2019-05-19T12:34:49.943Z,25.60
2019-05-19T12:37:19.575Z,26.10
2019-05-19T12:39:49.101Z,26.10
2019-05-19T12:42:18.642Z,27.00
2019-05-19T12:44:48.079Z,26.30
2019-05-19T12:47:17.387Z,26.20
2019-05-19T12:49:46.843Z,25.60
2019-05-19T12:52:16.083Z,25.60
2019-05-19T12:54:45.311Z,25.20
2019-05-19T12:57:14.631Z,24.80
2019-05-19T12:59:44.095Z,26.00
2019-05-19T13:02:13.306Z,27.40
2019-05-19T13:04:42.502Z,27.20
2019-05-19T13:07:11.762Z,27.20
2019-05-19T13:09:41.045Z,26.70
2019-05-19T13:12:10.205Z,26.80
2019-05-19T13:14:39.926Z,27.20
2019-05-19T13:17:09.112Z,26.80
2019-05-19T13:19:38.538Z,27.30
2019-05-19T13:22:07.872Z,28.20
2019-05-19T13:24:37.051Z,28.30
2019-05-19T13:27:06.367Z,28.40
2019-05-19T13:29:35.530Z,28.50
2019-05-19T13:32:04.743Z,28.60
2019-05-19T13:34:33.986Z,28.40
2019-05-19T13:37:03.360Z,28.60
2019-05-19T13:39:32.915Z,28.10
2019-05-19T13:42:02.606Z,27.70
2019-05-19T13:44:32.375Z,27.30
2019-05-19T13:47:01.547Z,27.90
2019-05-19T13:49:30.981Z,27.00
2019-05-19T13:52:00.441Z,26.90
2019-05-19T13:54:30.164Z,28.30
2019-05-19T13:57:11.946Z,27.80
2019-05-19T13:59:32.055Z,28.70
2019-05-19T14:02:02.431Z,29.80
2019-05-19T14:04:32.327Z,30.30
2019-05-19T14:07:01.618Z,29.30
2019-05-19T14:09:31.299Z,30.10
2019-05-19T14:12:00.530Z,30.50
2019-05-19T14:14:30.007Z,30.20
2019-05-19T14:17:00.774Z,29.50
2019-05-19T14:19:31.026Z,29.50
2019-05-19T14:22:00.742Z,29.50
2019-05-19T14:24:30.161Z,29.90
2019-05-19T14:26:59.628Z,29.20
2019-05-19T14:29:28.901Z,29.10
2019-05-19T14:31:58.073Z,29.00
2019-05-19T14:34:27.767Z,27.90
2019-05-19T14:36:57.385Z,28.40
2019-05-19T14:39:26.622Z,29.90
2019-05-19T14:42:00.323Z,28.60
2019-05-19T14:44:29.878Z,27.50
2019-05-19T14:46:59.105Z,26.80
2019-05-19T14:49:28.606Z,26.70
2019-05-19T14:51:57.770Z,29.30
2019-05-19T14:54:27.250Z,27.90
2019-05-19T14:56:56.417Z,27.40
2019-05-19T14:59:25.653Z,28.20
2019-05-19T15:01:54.813Z,27.40
2019-05-19T15:04:24.123Z,28.20
2019-05-19T15:06:53.302Z,27.60
2019-05-19T15:09:22.932Z,27.40
2019-05-19T15:11:52.177Z,27.90
2019-05-19T15:14:21.638Z,27.40
2019-05-19T15:16:50.806Z,27.00
2019-05-19T15:19:20.330Z,26.30
2019-05-19T15:21:49.478Z,26.20
2019-05-19T15:24:18.699Z,25.40
2019-05-19T15:26:47.945Z,27.10
2019-05-19T15:29:17.446Z,28.00
2019-05-19T15:31:47.074Z,28.40
2019-05-19T15:34:16.396Z,26.30
2019-05-19T15:36:45.977Z,25.80
2019-05-19T15:39:15.465Z,25.70
2019-05-19T15:41:44.705Z,26.40
2019-05-19T15:44:13.877Z,26.30
2019-05-19T15:46:43.420Z,29.30
2019-05-19T15:49:13.063Z,30.80
2019-05-19T15:51:59.137Z,31.70
2019-05-19T15:54:13.212Z,33.00
2019-05-19T15:56:42.378Z,33.50
2019-05-19T15:59:11.979Z,32.00
2019-05-19T16:01:41.487Z,31.10
2019-05-19T16:04:10.662Z,30.10
2019-05-19T16:06:40.359Z,28.00
2019-05-19T16:09:09.665Z,27.60
2019-05-19T16:11:39.056Z,27.10
2019-05-19T16:14:08.283Z,29.20
2019-05-19T16:16:37.455Z,30.20
2019-05-19T16:19:06.700Z,32.40
2019-05-19T16:21:35.938Z,32.60
2019-05-19T16:24:05.523Z,30.40
2019-05-19T16:26:35.445Z,31.20
2019-05-19T16:29:04.682Z,31.00
2019-05-19T16:31:34.199Z,32.00
2019-05-19T16:34:03.667Z,31.80
2019-05-19T16:36:33.138Z,32.50
2019-05-19T16:39:02.391Z,30.30
2019-05-19T16:41:31.654Z,30.30
2019-05-19T16:44:00.861Z,28.20
2019-05-19T16:46:30.157Z,28.10
2019-05-19T16:48:59.336Z,28.40
2019-05-19T16:51:28.674Z,29.80
2019-05-19T16:54:00.527Z,30.00
2019-05-19T16:56:30.197Z,29.80
2019-05-19T16:58:59.621Z,28.40
2019-05-19T17:01:29.293Z,26.70
2019-05-19T17:03:59.309Z,26.70
2019-05-19T17:06:28.965Z,29.20
2019-05-19T17:08:58.293Z,30.50
2019-05-19T17:11:27.759Z,28.50
2019-05-19T17:13:57.094Z,29.70
2019-05-19T17:16:26.330Z,29.50
2019-05-19T17:18:55.806Z,31.80
2019-05-19T17:21:25.005Z,32.40
2019-05-19T17:23:54.754Z,32.00
2019-05-19T17:26:24.238Z,31.50
2019-05-19T17:29:00.721Z,32.00
2019-05-19T17:31:24.775Z,30.70
2019-05-19T17:33:53.955Z,30.20
2019-05-19T17:36:23.506Z,26.70
2019-05-19T17:38:52.833Z,26.40
2019-05-19T17:41:22.149Z,26.80
2019-05-19T17:43:51.643Z,27.20
2019-05-19T17:46:21.206Z,27.90
2019-05-19T17:48:50.627Z,26.00
2019-05-19T17:51:20.185Z,24.40
2019-05-19T17:53:49.391Z,24.10
2019-05-19T17:56:20.733Z,24.00
2019-05-19T17:58:50.431Z,23.90
2019-05-19T18:01:20.286Z,23.60
2019-05-19T18:03:50.105Z,23.50
2019-05-19T18:06:19.339Z,23.60
2019-05-19T18:08:49.112Z,23.10
2019-05-19T18:11:18.725Z,22.10
2019-05-19T18:13:47.981Z,23.30
2019-05-19T18:16:17.298Z,23.50
2019-05-19T18:18:46.569Z,23.70
2019-05-19T18:21:16.222Z,23.50
2019-05-19T18:23:45.895Z,22.10
2019-05-19T18:26:15.253Z,22.70
2019-05-19T18:28:44.613Z,22.50
2019-05-19T18:31:14.209Z,22.40
2019-05-19T18:33:43.673Z,22.80
2019-05-19T18:36:13.146Z,23.40
2019-05-19T18:38:42.610Z,23.60
2019-05-19T18:41:11.823Z,23.00
2019-05-19T18:43:41.357Z,22.30
2019-05-19T18:46:11.231Z,22.00
2019-05-19T18:48:40.949Z,21.80
2019-05-19T18:51:10.420Z,21.70
2019-05-19T18:53:39.899Z,21.60
2019-05-19T18:56:09.501Z,21.30
2019-05-19T18:58:38.740Z,21.20
2019-05-19T19:01:08.247Z,21.10
2019-05-19T19:03:37.742Z,21.00
2019-05-19T19:06:07.693Z,21.00
2019-05-19T19:08:37.948Z,21.00
2019-05-19T19:11:07.556Z,21.00
2019-05-19T19:13:37.047Z,21.00
2019-05-19T19:16:06.820Z,21.00
2019-05-19T19:18:36.580Z,20.80
2019-05-19T19:21:06.017Z,20.80
2019-05-19T19:23:35.793Z,20.50
2019-05-19T19:26:05.369Z,20.30
2019-05-19T19:28:34.779Z,20.10
2019-05-19T19:31:04.221Z,20.10
2019-05-19T19:33:34.956Z,20.10
2019-05-19T19:36:04.719Z,20.00
2019-05-19T19:38:34.439Z,20.00
2019-05-19T19:41:04.217Z,19.90
2019-05-19T19:43:33.976Z,19.70
2019-05-19T19:46:03.860Z,19.80
2019-05-19T19:48:33.653Z,19.70
2019-05-19T19:51:03.140Z,19.50
2019-05-19T19:53:32.971Z,19.60
2019-05-19T19:56:02.804Z,19.50
2019-05-19T19:58:32.465Z,19.50
2019-05-19T20:01:02.366Z,19.50
2019-05-19T20:03:32.013Z,19.40
2019-05-19T20:06:02.238Z,19.30
2019-05-19T20:08:32.161Z,19.40
2019-05-19T20:11:01.761Z,19.40
2019-05-19T20:13:31.369Z,19.40
2019-05-19T20:16:01.182Z,19.30
2019-05-19T20:18:30.783Z,19.30
2019-05-19T20:21:00.301Z,19.40
2019-05-19T20:23:29.800Z,19.30
2019-05-19T20:25:59.210Z,19.30
2019-05-19T20:28:29.066Z,19.20
2019-05-19T20:30:58.509Z,19.30
2019-05-19T20:33:28.064Z,19.20
2019-05-19T20:35:57.902Z,19.20
2019-05-19T20:38:27.703Z,19.30
2019-05-19T20:40:57.422Z,19.10
2019-05-19T20:43:27.057Z,19.00
2019-05-19T20:45:57.682Z,19.10
2019-05-19T20:48:27.123Z,18.80
2019-05-19T20:50:56.561Z,18.70
2019-05-19T20:53:26.083Z,18.70
2019-05-19T20:55:55.483Z,18.70
2019-05-19T20:58:25.011Z,18.70
2019-05-19T21:00:54.583Z,19.00
2019-05-19T21:03:24.344Z,18.80
2019-05-19T21:05:54.023Z,18.60
2019-05-19T21:08:29.890Z,18.50
2019-05-19T21:10:59.349Z,18.50
2019-05-19T21:13:29.004Z,18.70
2019-05-19T21:15:58.931Z,18.60
2019-05-19T21:18:28.367Z,18.60
2019-05-19T21:20:58.391Z,18.70
2019-05-19T21:23:27.998Z,18.70
2019-05-19T21:25:57.607Z,18.70
2019-05-19T21:28:27.769Z,18.70
2019-05-19T21:31:05.747Z,17.00
2019-05-19T21:33:34.052Z,18.70
2019-05-19T21:36:06.842Z,18.70
2019-05-19T21:38:36.944Z,18.70
2019-05-19T21:41:07.834Z,18.60
2019-05-19T21:43:41.904Z,18.60
2019-05-19T21:46:11.612Z,18.60
2019-05-19T21:48:41.784Z,18.60
2019-05-19T21:51:12.021Z,18.50
2019-05-19T21:53:42.510Z,18.50
2019-05-19T21:56:12.396Z,18.40
2019-05-19T21:58:42.212Z,18.40
2019-05-19T22:01:22.810Z,18.30
2019-05-19T22:03:45.829Z,18.30
2019-05-19T22:06:16.779Z,18.20
2019-05-19T22:08:47.038Z,18.30
2019-05-19T22:11:16.956Z,18.20
2019-05-19T22:13:46.913Z,18.10
2019-05-19T22:16:16.704Z,18.00
2019-05-19T22:18:46.341Z,17.90
2019-05-19T22:21:15.996Z,18.00
2019-05-19T22:23:45.758Z,18.00
2019-05-19T22:26:15.426Z,18.00
2019-05-19T22:28:45.079Z,17.90
2019-05-19T22:31:14.657Z,16.40
2019-05-19T22:33:44.568Z,17.50
2019-05-19T22:36:14.279Z,17.50
2019-05-19T22:38:44.366Z,17.40
2019-05-19T22:41:15.013Z,17.30
2019-05-19T22:43:47.375Z,17.20
2019-05-19T22:46:17.207Z,17.30
2019-05-19T22:48:46.659Z,17.40
2019-05-19T22:51:16.302Z,17.30
2019-05-19T22:53:46.409Z,17.30
2019-05-19T22:56:16.202Z,17.20
2019-05-19T22:58:46.184Z,17.30
2019-05-19T23:01:16.009Z,17.00
2019-05-19T23:03:45.594Z,17.00
2019-05-19T23:06:15.496Z,17.10
2019-05-19T23:08:45.426Z,17.10
2019-05-19T23:11:15.103Z,17.10
2019-05-19T23:13:47.638Z,17.10
2019-05-19T23:16:20.409Z,17.00
2019-05-19T23:18:50.573Z,17.00
2019-05-19T23:21:20.387Z,17.00
2019-05-19T23:23:50.304Z,16.90
2019-05-19T23:26:20.322Z,16.90
2019-05-19T23:28:50.544Z,17.00
2019-05-19T23:31:20.401Z,17.00
2019-05-19T23:33:50.489Z,17.00
2019-05-19T23:36:20.343Z,16.90
2019-05-19T23:38:50.065Z,16.80
2019-05-19T23:41:20.214Z,16.60
2019-05-19T23:43:50.130Z,16.80
2019-05-19T23:46:19.846Z,16.60
2019-05-19T23:48:53.111Z,16.70
2019-05-19T23:51:23.670Z,16.70
2019-05-19T23:53:53.740Z,16.70
2019-05-19T23:56:23.690Z,16.80
2019-05-19T23:58:53.915Z,16.80
